createdAt,value
2018-07-31T00:02:37.672Z,70.40
2018-07-31T00:07:35.064Z,70.51
2018-07-31T00:12:32.478Z,71.50
2018-07-31T00:17:29.895Z,72.21
2018-07-31T00:22:27.316Z,72.43
2018-07-31T00:27:24.720Z,71.52
2018-07-31T00:32:22.105Z,72.80
2018-07-31T00:37:19.522Z,72.37
2018-07-31T00:42:16.900Z,72.71
2018-07-31T00:47:14.298Z,71.66
2018-07-31T00:52:11.693Z,71.69
2018-07-31T00:57:09.097Z,71.22
2018-07-31T01:02:06.545Z,69.63
2018-07-31T01:07:04.294Z,71.33
2018-07-31T01:12:01.719Z,68.67
2018-07-31T01:16:59.107Z,70.57
2018-07-31T01:21:56.566Z,71.60
2018-07-31T01:26:54.091Z,69.83
2018-07-31T01:31:51.471Z,71.79
2018-07-31T01:36:48.872Z,73.64
2018-07-31T01:41:46.310Z,72.90
2018-07-31T01:46:43.691Z,73.44
2018-07-31T01:51:41.096Z,73.62
2018-07-31T01:56:38.475Z,74.30
2018-07-31T02:01:35.894Z,74.32
2018-07-31T02:06:33.302Z,73.95
2018-07-31T02:11:30.695Z,73.69
2018-07-31T02:16:28.074Z,72.78
2018-07-31T02:21:25.503Z,74.48
2018-07-31T02:26:22.975Z,74.29
2018-07-31T02:31:20.379Z,74.18
2018-07-31T02:36:17.783Z,73.20
2018-07-31T02:41:15.187Z,74.47
2018-07-31T02:46:12.596Z,73.60
2018-07-31T02:51:10.045Z,73.47
2018-07-31T02:56:07.467Z,73.27
2018-07-31T03:01:04.923Z,73.70
2018-07-31T03:06:02.362Z,73.02
2018-07-31T03:10:59.818Z,73.02
2018-07-31T03:15:57.231Z,72.86
2018-07-31T03:20:54.715Z,71.92
2018-07-31T03:25:52.258Z,72.66
2018-07-31T03:30:49.687Z,72.09
2018-07-31T03:35:47.108Z,72.89
2018-07-31T03:40:44.579Z,71.90
2018-07-31T03:45:42.055Z,71.74
2018-07-31T03:50:39.496Z,71.05
2018-07-31T03:55:36.964Z,71.25
2018-07-31T04:00:34.323Z,71.29
2018-07-31T04:05:31.831Z,70.19
2018-07-31T04:10:29.283Z,70.09
2018-07-31T04:15:26.711Z,69.61
2018-07-31T04:20:24.439Z,70.21
2018-07-31T04:25:22.311Z,69.60
2018-07-31T04:30:19.736Z,68.89
2018-07-31T04:35:17.213Z,70.21
2018-07-31T04:40:14.644Z,68.39
2018-07-31T04:45:12.097Z,68.72
2018-07-31T04:50:10.459Z,67.76
2018-07-31T04:55:07.869Z,67.71
2018-07-31T05:00:07.289Z,68.58
2018-07-31T05:05:04.835Z,69.34
2018-07-31T05:10:02.280Z,70.18
2018-07-31T05:14:59.675Z,70.03
2018-07-31T05:19:57.126Z,69.27
2018-07-31T05:24:55.150Z,67.24
2018-07-31T05:29:52.580Z,67.65
2018-07-31T05:34:49.992Z,68.45
2018-07-31T05:39:47.399Z,67.23
2018-07-31T05:44:44.810Z,66.13
2018-07-31T05:49:42.259Z,65.07
2018-07-31T05:54:39.986Z,62.96
2018-07-31T05:59:37.422Z,61.94
2018-07-31T06:04:34.908Z,62.01
2018-07-31T06:09:32.397Z,61.63
2018-07-31T06:14:29.769Z,59.87
2018-07-31T06:19:27.205Z,59.05
2018-07-31T06:24:24.675Z,59.01
2018-07-31T06:29:22.115Z,58.80
2018-07-31T06:34:19.518Z,59.03
2018-07-31T06:39:16.937Z,57.83
2018-07-31T06:44:14.372Z,58.06
2018-07-31T06:49:12.759Z,58.14
2018-07-31T06:54:10.228Z,56.62
2018-07-31T06:59:07.631Z,55.49
2018-07-31T07:04:05.127Z,54.56
2018-07-31T07:09:02.863Z,55.18
2018-07-31T07:14:00.278Z,56.01
2018-07-31T07:18:57.701Z,54.59
2018-07-31T07:23:56.617Z,54.33
2018-07-31T07:28:56.158Z,56.67
2018-07-31T07:33:53.622Z,57.10
2018-07-31T07:38:51.030Z,58.24
2018-07-31T07:43:48.448Z,56.13
2018-07-31T07:48:45.880Z,55.00
2018-07-31T07:53:44.363Z,56.60
2018-07-31T07:58:41.762Z,55.02
2018-07-31T08:03:39.193Z,53.33
2018-07-31T08:08:36.613Z,53.99
2018-07-31T08:13:34.025Z,51.52
2018-07-31T08:18:34.466Z,51.63
2018-07-31T08:23:39.921Z,53.91
2018-07-31T08:28:37.386Z,52.43
2018-07-31T08:33:34.866Z,50.09
2018-07-31T08:38:32.305Z,53.63
2018-07-31T08:43:29.675Z,49.46
2018-07-31T08:48:27.108Z,47.50
2018-07-31T08:53:32.832Z,44.85
2018-07-31T08:58:30.243Z,46.25
2018-07-31T09:03:27.745Z,47.29
2018-07-31T09:08:25.261Z,50.25
2018-07-31T09:13:22.630Z,49.43
2018-07-31T09:18:20.029Z,47.96
2018-07-31T09:23:20.549Z,46.45
2018-07-31T09:28:18.576Z,43.42
2018-07-31T09:33:16.025Z,46.17
2018-07-31T09:38:13.439Z,42.00
2018-07-31T09:43:10.879Z,43.92
2018-07-31T09:48:08.322Z,42.67
2018-07-31T09:53:12.763Z,44.54
2018-07-31T09:58:10.300Z,41.39
2018-07-31T10:03:07.748Z,41.64
2018-07-31T10:08:05.626Z,40.26
2018-07-31T10:13:03.128Z,39.75
2018-07-31T10:18:00.684Z,40.34
2018-07-31T10:22:59.645Z,39.07
2018-07-31T10:28:03.706Z,37.96
2018-07-31T10:33:01.289Z,40.69
2018-07-31T10:37:58.763Z,38.30
2018-07-31T10:42:56.291Z,38.20
2018-07-31T10:47:53.765Z,39.10
2018-07-31T10:52:53.700Z,38.54
2018-07-31T10:57:51.299Z,40.93
2018-07-31T11:02:48.837Z,36.79
2018-07-31T11:07:46.237Z,36.82
2018-07-31T11:12:43.734Z,34.85
2018-07-31T11:17:41.332Z,33.67
2018-07-31T11:22:38.837Z,31.77
2018-07-31T11:27:36.409Z,33.63
2018-07-31T11:32:33.763Z,32.54
2018-07-31T11:37:31.203Z,35.50
2018-07-31T11:42:28.671Z,33.91
2018-07-31T11:47:26.124Z,34.77
2018-07-31T11:52:23.564Z,34.63
2018-07-31T11:57:20.983Z,35.35
2018-07-31T12:02:18.406Z,34.40
2018-07-31T12:07:15.859Z,34.62
2018-07-31T12:12:13.307Z,36.17
2018-07-31T12:17:10.755Z,32.72
2018-07-31T12:22:08.187Z,31.68
2018-07-31T12:27:05.712Z,33.75
2018-07-31T12:32:03.195Z,32.09
2018-07-31T12:37:00.605Z,32.30
2018-07-31T12:41:58.038Z,33.54
2018-07-31T12:46:55.480Z,33.76
2018-07-31T12:51:53.771Z,34.29
2018-07-31T12:56:51.279Z,33.52
2018-07-31T13:01:48.695Z,34.03
2018-07-31T13:06:46.228Z,34.78
2018-07-31T13:11:43.635Z,35.09
2018-07-31T13:16:41.072Z,34.75
2018-07-31T13:21:38.544Z,35.81
2018-07-31T13:26:36.014Z,35.18
2018-07-31T13:31:33.483Z,34.31
2018-07-31T13:36:30.918Z,34.52
2018-07-31T13:41:28.362Z,34.44
2018-07-31T13:46:25.815Z,34.07
2018-07-31T13:51:23.251Z,35.56
2018-07-31T13:56:20.659Z,35.10
2018-07-31T14:01:18.124Z,33.64
2018-07-31T14:06:22.243Z,33.07
2018-07-31T14:11:19.701Z,33.96
2018-07-31T14:16:17.123Z,33.90
2018-07-31T14:21:17.083Z,32.72
2018-07-31T14:26:14.555Z,32.28
2018-07-31T14:31:12.154Z,34.58
2018-07-31T14:36:09.616Z,32.41
2018-07-31T14:41:07.065Z,32.26
2018-07-31T14:46:04.527Z,33.47
2018-07-31T14:51:01.978Z,32.80
2018-07-31T14:55:59.435Z,32.37
2018-07-31T15:00:56.863Z,33.63
2018-07-31T15:05:54.355Z,34.51
2018-07-31T15:10:51.864Z,32.88
2018-07-31T15:15:49.258Z,34.49
2018-07-31T15:20:46.779Z,34.50
2018-07-31T15:25:44.239Z,33.13
2018-07-31T15:30:41.699Z,34.24
2018-07-31T15:35:39.171Z,33.72
2018-07-31T15:40:36.601Z,34.85
2018-07-31T15:45:34.123Z,35.73
2018-07-31T15:50:31.545Z,35.80
2018-07-31T15:55:29.014Z,36.84
2018-07-31T16:00:26.493Z,36.74
2018-07-31T16:05:23.947Z,37.63
2018-07-31T16:10:21.375Z,38.68
2018-07-31T16:15:18.771Z,38.27
2018-07-31T16:20:16.292Z,39.78
2018-07-31T16:25:13.743Z,38.76
2018-07-31T16:30:11.211Z,39.90
2018-07-31T16:35:08.644Z,39.46
2018-07-31T16:40:06.148Z,39.80
2018-07-31T16:45:03.785Z,39.44
2018-07-31T16:50:01.224Z,39.61
2018-07-31T16:54:58.647Z,39.19
2018-07-31T16:59:56.140Z,39.78
2018-07-31T17:04:53.608Z,39.11
2018-07-31T17:09:51.048Z,39.08
2018-07-31T17:14:48.481Z,38.76
2018-07-31T17:19:45.921Z,37.62
2018-07-31T17:24:43.370Z,38.64
2018-07-31T17:29:40.843Z,38.60
2018-07-31T17:34:38.315Z,38.64
2018-07-31T17:39:35.730Z,39.16
2018-07-31T17:44:33.180Z,38.70
2018-07-31T17:49:30.726Z,38.98
2018-07-31T17:54:28.949Z,38.71
2018-07-31T17:59:26.379Z,39.04
2018-07-31T18:04:24.669Z,39.68
2018-07-31T18:09:22.058Z,40.39
2018-07-31T18:14:19.666Z,40.76
2018-07-31T18:19:16.976Z,41.18
2018-07-31T18:24:14.515Z,46.86
2018-07-31T18:29:12.023Z,47.99
2018-07-31T18:34:09.360Z,47.96
2018-07-31T18:39:09.448Z,48.55
2018-07-31T18:44:06.902Z,48.87
2018-07-31T18:49:04.522Z,51.15
2018-07-31T18:54:02.367Z,50.43
2018-07-31T18:58:59.906Z,50.43
2018-07-31T19:03:57.321Z,51.75
2018-07-31T19:08:54.768Z,51.67
2018-07-31T19:13:52.208Z,51.79
2018-07-31T19:18:49.659Z,52.30
2018-07-31T19:23:48.174Z,51.85
2018-07-31T19:28:45.617Z,52.15
2018-07-31T19:33:44.859Z,52.16
2018-07-31T19:39:14.742Z,52.31
2018-07-31T19:44:24.411Z,52.89
2018-07-31T19:49:39.538Z,52.59
2018-07-31T20:00:03.202Z,52.68
2018-07-31T20:05:10.185Z,52.62
2018-07-31T20:10:07.714Z,53.37
2018-07-31T20:15:05.143Z,53.58
2018-07-31T20:20:02.603Z,53.57
2018-07-31T20:25:00.034Z,53.04
2018-07-31T20:29:57.410Z,54.21
2018-07-31T20:34:54.823Z,53.43
2018-07-31T20:39:52.241Z,54.11
2018-07-31T20:44:49.690Z,52.61
2018-07-31T20:49:47.073Z,52.81
2018-07-31T20:54:44.464Z,52.43
2018-07-31T20:59:41.892Z,53.58
2018-07-31T21:04:39.258Z,54.24
2018-07-31T21:09:36.647Z,52.99
2018-07-31T21:14:34.121Z,53.20
2018-07-31T21:19:31.514Z,53.85
2018-07-31T21:24:28.898Z,53.43
2018-07-31T21:29:26.351Z,53.43
2018-07-31T21:34:23.722Z,51.82
2018-07-31T21:39:21.126Z,52.56
2018-07-31T21:44:18.541Z,51.97
2018-07-31T21:49:15.962Z,52.83
2018-07-31T21:54:13.361Z,52.32
2018-07-31T21:59:10.740Z,51.48
2018-07-31T22:04:08.170Z,51.48
2018-07-31T22:09:07.104Z,52.29
2018-07-31T22:14:04.510Z,51.72
2018-07-31T22:19:01.892Z,53.17
2018-07-31T22:24:00.105Z,51.83
2018-07-31T22:28:57.504Z,52.02
2018-07-31T22:33:54.886Z,52.37
2018-07-31T22:38:52.262Z,52.56
2018-07-31T22:43:49.652Z,52.78
2018-07-31T22:48:47.046Z,52.49
2018-07-31T22:53:45.522Z,53.75
2018-07-31T22:58:42.938Z,53.17
2018-07-31T23:03:40.339Z,53.57
2018-07-31T23:08:37.739Z,54.20
2018-07-31T23:13:35.122Z,54.98
2018-07-31T23:18:32.510Z,54.31
2018-07-31T23:23:30.946Z,54.64
2018-07-31T23:28:28.394Z,56.09
2018-07-31T23:33:25.792Z,56.37
2018-07-31T23:38:23.199Z,56.40
2018-07-31T23:43:20.614Z,56.32
2018-07-31T23:48:18.019Z,56.38
2018-07-31T23:53:19.526Z,57.72
2018-07-31T23:58:16.971Z,57.19
